sensor_id;sensor_type;location;lat;lon;timestamp;P1;durP1;ratioP1;P2;durP2;ratioP2
66380;SDS011;53177;52.648;1.214;2023-07-29T00:01:47;5.87;;;2.27;;
66380;SDS011;53177;52.648;1.214;2023-07-29T00:04:14;6.40;;;2.33;;
66380;SDS011;53177;52.648;1.214;2023-07-29T00:06:39;6.53;;;2.33;;
66380;SDS011;53177;52.648;1.214;2023-07-29T00:09:05;7.73;;;2.63;;
66380;SDS011;53177;52.648;1.214;2023-07-29T00:11:30;6.72;;;2.00;;
66380;SDS011;53177;52.648;1.214;2023-07-29T00:13:58;5.82;;;1.95;;
66380;SDS011;53177;52.648;1.214;2023-07-29T00:16:25;5.53;;;2.07;;
66380;SDS011;53177;52.648;1.214;2023-07-29T00:18:50;5.80;;;2.28;;
66380;SDS011;53177;52.648;1.214;2023-07-29T00:21:16;5.17;;;2.13;;
66380;SDS011;53177;52.648;1.214;2023-07-29T00:23:42;6.72;;;2.30;;
66380;SDS011;53177;52.648;1.214;2023-07-29T00:26:07;6.50;;;1.87;;
66380;SDS011;53177;52.648;1.214;2023-07-29T00:28:32;5.73;;;2.50;;
66380;SDS011;53177;52.648;1.214;2023-07-29T00:30:58;6.60;;;2.20;;
66380;SDS011;53177;52.648;1.214;2023-07-29T00:33:23;5.47;;;1.97;;
66380;SDS011;53177;52.648;1.214;2023-07-29T00:35:48;4.73;;;1.90;;
66380;SDS011;53177;52.648;1.214;2023-07-29T00:38:14;6.03;;;2.03;;
66380;SDS011;53177;52.648;1.214;2023-07-29T00:40:39;6.00;;;2.20;;
66380;SDS011;53177;52.648;1.214;2023-07-29T00:43:05;6.00;;;2.10;;
66380;SDS011;53177;52.648;1.214;2023-07-29T00:45:31;5.55;;;2.00;;
66380;SDS011;53177;52.648;1.214;2023-07-29T00:47:57;4.80;;;2.10;;
66380;SDS011;53177;52.648;1.214;2023-07-29T00:50:24;6.85;;;2.35;;
66380;SDS011;53177;52.648;1.214;2023-07-29T00:52:53;5.60;;;1.92;;
66380;SDS011;53177;52.648;1.214;2023-07-29T00:55:19;7.32;;;2.65;;
66380;SDS011;53177;52.648;1.214;2023-07-29T00:57:45;4.90;;;2.50;;
66380;SDS011;53177;52.648;1.214;2023-07-29T01:00:14;5.10;;;2.20;;
66380;SDS011;53177;52.648;1.214;2023-07-29T01:02:44;5.70;;;2.20;;
66380;SDS011;53177;52.648;1.214;2023-07-29T01:05:14;6.57;;;2.17;;
66380;SDS011;53177;52.648;1.214;2023-07-29T01:16:19;5.57;;;1.98;;
66380;SDS011;53177;52.648;1.214;2023-07-29T01:18:49;5.13;;;1.90;;
66380;SDS011;53177;52.648;1.214;2023-07-29T01:21:19;5.97;;;2.00;;
66380;SDS011;53177;52.648;1.214;2023-07-29T01:23:46;6.35;;;2.35;;
66380;SDS011;53177;52.648;1.214;2023-07-29T01:26:11;5.03;;;1.80;;
66380;SDS011;53177;52.648;1.214;2023-07-29T01:28:36;4.93;;;2.00;;
66380;SDS011;53177;52.648;1.214;2023-07-29T01:31:10;6.35;;;2.20;;
66380;SDS011;53177;52.648;1.214;2023-07-29T01:33:46;4.40;;;1.80;;
66380;SDS011;53177;52.648;1.214;2023-07-29T01:36:33;5.95;;;2.13;;
66380;SDS011;53177;52.648;1.214;2023-07-29T01:39:04;5.03;;;2.00;;
66380;SDS011;53177;52.648;1.214;2023-07-29T01:41:30;6.83;;;2.27;;
66380;SDS011;53177;52.648;1.214;2023-07-29T01:43:56;5.03;;;2.35;;
66380;SDS011;53177;52.648;1.214;2023-07-29T01:46:22;5.95;;;1.80;;
66380;SDS011;53177;52.648;1.214;2023-07-29T01:48:47;4.77;;;1.63;;
66380;SDS011;53177;52.648;1.214;2023-07-29T01:51:14;5.13;;;1.90;;
66380;SDS011;53177;52.648;1.214;2023-07-29T01:53:39;5.03;;;1.80;;
66380;SDS011;53177;52.648;1.214;2023-07-29T01:56:05;5.90;;;2.27;;
66380;SDS011;53177;52.648;1.214;2023-07-29T01:58:30;5.53;;;1.73;;
66380;SDS011;53177;52.648;1.214;2023-07-29T02:00:55;4.73;;;1.80;;
66380;SDS011;53177;52.648;1.214;2023-07-29T02:03:21;7.53;;;1.93;;
66380;SDS011;53177;52.648;1.214;2023-07-29T02:05:46;4.75;;;1.50;;
66380;SDS011;53177;52.648;1.214;2023-07-29T02:08:11;5.90;;;1.90;;
66380;SDS011;53177;52.648;1.214;2023-07-29T02:10:37;6.07;;;1.63;;
66380;SDS011;53177;52.648;1.214;2023-07-29T02:13:03;4.93;;;1.70;;
66380;SDS011;53177;52.648;1.214;2023-07-29T02:15:28;7.35;;;2.10;;
66380;SDS011;53177;52.648;1.214;2023-07-29T02:17:54;5.20;;;1.80;;
66380;SDS011;53177;52.648;1.214;2023-07-29T02:20:20;5.30;;;1.80;;
66380;SDS011;53177;52.648;1.214;2023-07-29T02:22:46;6.77;;;2.30;;
66380;SDS011;53177;52.648;1.214;2023-07-29T02:25:13;7.63;;;2.25;;
66380;SDS011;53177;52.648;1.214;2023-07-29T02:27:39;7.43;;;2.70;;
66380;SDS011;53177;52.648;1.214;2023-07-29T02:30:04;7.00;;;2.40;;
66380;SDS011;53177;52.648;1.214;2023-07-29T02:32:30;8.90;;;2.05;;
66380;SDS011;53177;52.648;1.214;2023-07-29T02:34:56;8.70;;;2.47;;
66380;SDS011;53177;52.648;1.214;2023-07-29T02:37:21;9.77;;;3.13;;
66380;SDS011;53177;52.648;1.214;2023-07-29T02:39:47;9.00;;;2.67;;
66380;SDS011;53177;52.648;1.214;2023-07-29T02:42:12;9.80;;;3.30;;
66380;SDS011;53177;52.648;1.214;2023-07-29T02:44:38;7.77;;;2.30;;
66380;SDS011;53177;52.648;1.214;2023-07-29T02:47:04;5.30;;;1.70;;
66380;SDS011;53177;52.648;1.214;2023-07-29T02:49:30;5.43;;;1.93;;
66380;SDS011;53177;52.648;1.214;2023-07-29T02:51:55;5.87;;;1.77;;
66380;SDS011;53177;52.648;1.214;2023-07-29T02:54:21;5.38;;;1.98;;
66380;SDS011;53177;52.648;1.214;2023-07-29T02:56:46;5.53;;;1.97;;
66380;SDS011;53177;52.648;1.214;2023-07-29T02:59:11;5.30;;;1.80;;
66380;SDS011;53177;52.648;1.214;2023-07-29T03:01:37;4.93;;;1.93;;
66380;SDS011;53177;52.648;1.214;2023-07-29T03:04:02;6.13;;;1.87;;
66380;SDS011;53177;52.648;1.214;2023-07-29T03:06:28;5.65;;;1.98;;
66380;SDS011;53177;52.648;1.214;2023-07-29T03:08:53;5.87;;;1.80;;
66380;SDS011;53177;52.648;1.214;2023-07-29T03:11:19;4.63;;;1.80;;
66380;SDS011;53177;52.648;1.214;2023-07-29T03:13:44;5.20;;;1.80;;
66380;SDS011;53177;52.648;1.214;2023-07-29T03:16:10;5.37;;;1.87;;
66380;SDS011;53177;52.648;1.214;2023-07-29T03:18:37;5.82;;;1.70;;
66380;SDS011;53177;52.648;1.214;2023-07-29T03:21:03;4.65;;;1.75;;
66380;SDS011;53177;52.648;1.214;2023-07-29T03:23:29;5.73;;;1.83;;
66380;SDS011;53177;52.648;1.214;2023-07-29T03:25:56;5.40;;;1.80;;
66380;SDS011;53177;52.648;1.214;2023-07-29T03:28:27;8.40;;;2.20;;
66380;SDS011;53177;52.648;1.214;2023-07-29T03:30:54;10.80;;;3.00;;
66380;SDS011;53177;52.648;1.214;2023-07-29T03:33:20;10.32;;;2.85;;
66380;SDS011;53177;52.648;1.214;2023-07-29T03:35:47;5.80;;;2.05;;
66380;SDS011;53177;52.648;1.214;2023-07-29T03:38:16;8.88;;;2.58;;
66380;SDS011;53177;52.648;1.214;2023-07-29T03:40:45;9.38;;;2.65;;
66380;SDS011;53177;52.648;1.214;2023-07-29T03:43:21;7.20;;;1.90;;
66380;SDS011;53177;52.648;1.214;2023-07-29T03:45:48;13.88;;;3.40;;
66380;SDS011;53177;52.648;1.214;2023-07-29T03:48:14;9.83;;;3.20;;
66380;SDS011;53177;52.648;1.214;2023-07-29T03:50:39;11.63;;;3.20;;
66380;SDS011;53177;52.648;1.214;2023-07-29T03:53:05;8.00;;;2.42;;
66380;SDS011;53177;52.648;1.214;2023-07-29T03:55:30;7.37;;;2.50;;
66380;SDS011;53177;52.648;1.214;2023-07-29T03:57:57;10.65;;;3.22;;
66380;SDS011;53177;52.648;1.214;2023-07-29T04:00:23;7.28;;;2.75;;
66380;SDS011;53177;52.648;1.214;2023-07-29T04:02:50;6.73;;;2.50;;
66380;SDS011;53177;52.648;1.214;2023-07-29T04:05:16;12.13;;;3.35;;
66380;SDS011;53177;52.648;1.214;2023-07-29T04:07:41;8.80;;;2.90;;
66380;SDS011;53177;52.648;1.214;2023-07-29T04:10:07;8.80;;;3.20;;
66380;SDS011;53177;52.648;1.214;2023-07-29T04:12:33;10.37;;;2.63;;
66380;SDS011;53177;52.648;1.214;2023-07-29T04:14:58;11.35;;;3.72;;
66380;SDS011;53177;52.648;1.214;2023-07-29T04:17:24;7.60;;;2.60;;
66380;SDS011;53177;52.648;1.214;2023-07-29T04:19:49;10.10;;;2.90;;
66380;SDS011;53177;52.648;1.214;2023-07-29T04:22:15;9.07;;;2.93;;
66380;SDS011;53177;52.648;1.214;2023-07-29T04:24:41;9.15;;;3.05;;
66380;SDS011;53177;52.648;1.214;2023-07-29T04:27:06;5.30;;;1.93;;
66380;SDS011;53177;52.648;1.214;2023-07-29T04:29:32;5.90;;;2.00;;
66380;SDS011;53177;52.648;1.214;2023-07-29T04:31:57;5.78;;;2.30;;
66380;SDS011;53177;52.648;1.214;2023-07-29T04:34:23;7.63;;;2.10;;
66380;SDS011;53177;52.648;1.214;2023-07-29T04:36:48;5.07;;;2.00;;
66380;SDS011;53177;52.648;1.214;2023-07-29T04:39:14;7.10;;;2.60;;
66380;SDS011;53177;52.648;1.214;2023-07-29T04:41:40;10.60;;;2.80;;
66380;SDS011;53177;52.648;1.214;2023-07-29T04:44:06;5.93;;;2.08;;
66380;SDS011;53177;52.648;1.214;2023-07-29T04:46:31;6.67;;;2.43;;
66380;SDS011;53177;52.648;1.214;2023-07-29T04:48:57;8.43;;;2.80;;
66380;SDS011;53177;52.648;1.214;2023-07-29T04:51:23;8.20;;;2.88;;
66380;SDS011;53177;52.648;1.214;2023-07-29T04:53:48;8.50;;;2.87;;
66380;SDS011;53177;52.648;1.214;2023-07-29T04:56:14;7.20;;;2.55;;
66380;SDS011;53177;52.648;1.214;2023-07-29T04:58:39;8.20;;;3.17;;
66380;SDS011;53177;52.648;1.214;2023-07-29T05:01:05;7.80;;;2.53;;
66380;SDS011;53177;52.648;1.214;2023-07-29T05:03:31;9.23;;;2.85;;
66380;SDS011;53177;52.648;1.214;2023-07-29T05:05:57;7.83;;;2.70;;
66380;SDS011;53177;52.648;1.214;2023-07-29T05:08:23;6.05;;;2.40;;
66380;SDS011;53177;52.648;1.214;2023-07-29T05:10:49;12.40;;;3.73;;
66380;SDS011;53177;52.648;1.214;2023-07-29T05:13:15;9.38;;;3.50;;
66380;SDS011;53177;52.648;1.214;2023-07-29T05:15:40;9.67;;;3.30;;
66380;SDS011;53177;52.648;1.214;2023-07-29T05:18:06;7.37;;;2.87;;
66380;SDS011;53177;52.648;1.214;2023-07-29T05:20:31;9.13;;;3.17;;
66380;SDS011;53177;52.648;1.214;2023-07-29T05:22:56;8.33;;;2.80;;
66380;SDS011;53177;52.648;1.214;2023-07-29T05:25:22;9.47;;;2.50;;
66380;SDS011;53177;52.648;1.214;2023-07-29T05:27:47;5.67;;;2.30;;
66380;SDS011;53177;52.648;1.214;2023-07-29T05:30:13;13.40;;;4.27;;
66380;SDS011;53177;52.648;1.214;2023-07-29T05:32:40;14.18;;;4.22;;
66380;SDS011;53177;52.648;1.214;2023-07-29T05:35:05;11.30;;;3.60;;
66380;SDS011;53177;52.648;1.214;2023-07-29T05:37:31;8.18;;;2.50;;
66380;SDS011;53177;52.648;1.214;2023-07-29T05:39:56;12.73;;;3.90;;
66380;SDS011;53177;52.648;1.214;2023-07-29T05:42:22;9.87;;;3.53;;
66380;SDS011;53177;52.648;1.214;2023-07-29T05:44:47;7.67;;;2.83;;
66380;SDS011;53177;52.648;1.214;2023-07-29T05:47:12;8.23;;;3.10;;
66380;SDS011;53177;52.648;1.214;2023-07-29T05:49:38;8.38;;;2.78;;
66380;SDS011;53177;52.648;1.214;2023-07-29T05:52:03;9.37;;;2.80;;
66380;SDS011;53177;52.648;1.214;2023-07-29T05:54:29;14.83;;;4.20;;
66380;SDS011;53177;52.648;1.214;2023-07-29T05:56:54;10.27;;;2.83;;
66380;SDS011;53177;52.648;1.214;2023-07-29T05:59:19;8.97;;;2.90;;
66380;SDS011;53177;52.648;1.214;2023-07-29T06:01:45;7.45;;;2.22;;
66380;SDS011;53177;52.648;1.214;2023-07-29T06:04:10;11.90;;;3.83;;
66380;SDS011;53177;52.648;1.214;2023-07-29T06:06:35;12.60;;;4.33;;
66380;SDS011;53177;52.648;1.214;2023-07-29T06:09:01;7.27;;;2.47;;
66380;SDS011;53177;52.648;1.214;2023-07-29T06:11:26;5.20;;;2.17;;
66380;SDS011;53177;52.648;1.214;2023-07-29T06:13:52;9.67;;;2.97;;
66380;SDS011;53177;52.648;1.214;2023-07-29T06:16:17;6.90;;;2.60;;
66380;SDS011;53177;52.648;1.214;2023-07-29T06:18:42;8.90;;;2.50;;
66380;SDS011;53177;52.648;1.214;2023-07-29T06:21:08;10.60;;;3.23;;
66380;SDS011;53177;52.648;1.214;2023-07-29T06:23:36;7.50;;;2.78;;
66380;SDS011;53177;52.648;1.214;2023-07-29T06:26:01;8.83;;;2.90;;
66380;SDS011;53177;52.648;1.214;2023-07-29T06:28:27;8.67;;;2.80;;
66380;SDS011;53177;52.648;1.214;2023-07-29T06:30:52;6.73;;;2.30;;
66380;SDS011;53177;52.648;1.214;2023-07-29T06:33:18;8.07;;;2.70;;
66380;SDS011;53177;52.648;1.214;2023-07-29T06:35:43;8.15;;;2.70;;
66380;SDS011;53177;52.648;1.214;2023-07-29T06:38:09;10.90;;;3.87;;
66380;SDS011;53177;52.648;1.214;2023-07-29T06:40:34;12.77;;;4.07;;
66380;SDS011;53177;52.648;1.214;2023-07-29T06:42:59;14.30;;;4.50;;
66380;SDS011;53177;52.648;1.214;2023-07-29T06:45:25;10.13;;;3.60;;
66380;SDS011;53177;52.648;1.214;2023-07-29T06:47:50;9.40;;;3.20;;
66380;SDS011;53177;52.648;1.214;2023-07-29T06:50:16;11.13;;;4.30;;
66380;SDS011;53177;52.648;1.214;2023-07-29T06:52:42;11.47;;;3.10;;
66380;SDS011;53177;52.648;1.214;2023-07-29T06:55:08;7.28;;;2.50;;
66380;SDS011;53177;52.648;1.214;2023-07-29T06:57:33;10.53;;;3.57;;
66380;SDS011;53177;52.648;1.214;2023-07-29T06:59:58;8.73;;;3.17;;
66380;SDS011;53177;52.648;1.214;2023-07-29T07:02:24;16.50;;;6.07;;
66380;SDS011;53177;52.648;1.214;2023-07-29T07:04:49;9.27;;;3.40;;
66380;SDS011;53177;52.648;1.214;2023-07-29T07:07:15;10.73;;;2.83;;
66380;SDS011;53177;52.648;1.214;2023-07-29T07:09:41;13.57;;;4.95;;
66380;SDS011;53177;52.648;1.214;2023-07-29T07:12:06;10.27;;;3.00;;
66380;SDS011;53177;52.648;1.214;2023-07-29T07:14:33;24.00;;;8.75;;
66380;SDS011;53177;52.648;1.214;2023-07-29T07:16:58;12.07;;;4.10;;
66380;SDS011;53177;52.648;1.214;2023-07-29T07:19:23;9.93;;;3.35;;
66380;SDS011;53177;52.648;1.214;2023-07-29T07:21:49;14.57;;;5.50;;
66380;SDS011;53177;52.648;1.214;2023-07-29T07:24:14;11.83;;;4.30;;
66380;SDS011;53177;52.648;1.214;2023-07-29T07:26:39;16.70;;;6.33;;
66380;SDS011;53177;52.648;1.214;2023-07-29T07:29:05;9.33;;;4.00;;
66380;SDS011;53177;52.648;1.214;2023-07-29T07:31:32;9.95;;;3.58;;
66380;SDS011;53177;52.648;1.214;2023-07-29T07:33:58;11.73;;;4.10;;
66380;SDS011;53177;52.648;1.214;2023-07-29T07:36:24;10.25;;;4.20;;
66380;SDS011;53177;52.648;1.214;2023-07-29T07:38:49;10.87;;;3.83;;
66380;SDS011;53177;52.648;1.214;2023-07-29T07:41:15;15.33;;;5.60;;
66380;SDS011;53177;52.648;1.214;2023-07-29T07:43:40;8.73;;;2.93;;
66380;SDS011;53177;52.648;1.214;2023-07-29T07:46:05;11.37;;;3.50;;
66380;SDS011;53177;52.648;1.214;2023-07-29T07:48:31;8.90;;;3.17;;
66380;SDS011;53177;52.648;1.214;2023-07-29T07:50:58;5.82;;;2.35;;
66380;SDS011;53177;52.648;1.214;2023-07-29T07:53:23;5.70;;;2.50;;
66380;SDS011;53177;52.648;1.214;2023-07-29T07:55:50;6.95;;;2.20;;
66380;SDS011;53177;52.648;1.214;2023-07-29T07:58:16;6.50;;;2.40;;
66380;SDS011;53177;52.648;1.214;2023-07-29T08:00:41;12.77;;;3.40;;
66380;SDS011;53177;52.648;1.214;2023-07-29T08:03:08;13.48;;;4.20;;
66380;SDS011;53177;52.648;1.214;2023-07-29T08:05:33;15.33;;;4.67;;
66380;SDS011;53177;52.648;1.214;2023-07-29T08:07:58;7.23;;;2.30;;
66380;SDS011;53177;52.648;1.214;2023-07-29T08:10:24;6.60;;;2.30;;
66380;SDS011;53177;52.648;1.214;2023-07-29T08:12:51;8.65;;;3.05;;
66380;SDS011;53177;52.648;1.214;2023-07-29T08:15:16;7.70;;;2.10;;
66380;SDS011;53177;52.648;1.214;2023-07-29T08:17:41;7.83;;;2.50;;
66380;SDS011;53177;52.648;1.214;2023-07-29T08:20:07;10.40;;;3.50;;
66380;SDS011;53177;52.648;1.214;2023-07-29T08:22:32;6.53;;;2.30;;
66380;SDS011;53177;52.648;1.214;2023-07-29T08:24:58;10.67;;;3.30;;
66380;SDS011;53177;52.648;1.214;2023-07-29T08:27:23;14.57;;;4.70;;
66380;SDS011;53177;52.648;1.214;2023-07-29T08:29:48;7.03;;;2.30;;
66380;SDS011;53177;52.648;1.214;2023-07-29T08:32:14;7.83;;;2.37;;
66380;SDS011;53177;52.648;1.214;2023-07-29T08:34:39;8.23;;;2.47;;
66380;SDS011;53177;52.648;1.214;2023-07-29T08:37:05;6.47;;;2.43;;
66380;SDS011;53177;52.648;1.214;2023-07-29T08:39:30;5.22;;;2.00;;
66380;SDS011;53177;52.648;1.214;2023-07-29T08:44:26;8.05;;;2.40;;
66380;SDS011;53177;52.648;1.214;2023-07-29T08:46:56;7.85;;;2.10;;
66380;SDS011;53177;52.648;1.214;2023-07-29T08:49:22;7.57;;;2.40;;
66380;SDS011;53177;52.648;1.214;2023-07-29T08:51:49;6.67;;;2.30;;
66380;SDS011;53177;52.648;1.214;2023-07-29T08:54:15;6.10;;;2.10;;
66380;SDS011;53177;52.648;1.214;2023-07-29T08:56:41;6.22;;;2.00;;
66380;SDS011;53177;52.648;1.214;2023-07-29T08:59:08;7.93;;;2.58;;
66380;SDS011;53177;52.648;1.214;2023-07-29T09:01:33;6.47;;;2.13;;
66380;SDS011;53177;52.648;1.214;2023-07-29T09:03:59;6.15;;;2.35;;
66380;SDS011;53177;52.648;1.214;2023-07-29T09:06:25;11.87;;;3.67;;
66380;SDS011;53177;52.648;1.214;2023-07-29T09:08:52;11.75;;;3.70;;
66380;SDS011;53177;52.648;1.214;2023-07-29T09:11:18;6.65;;;2.42;;
66380;SDS011;53177;52.648;1.214;2023-07-29T09:13:45;12.02;;;3.28;;
66380;SDS011;53177;52.648;1.214;2023-07-29T09:16:10;12.57;;;4.07;;
66380;SDS011;53177;52.648;1.214;2023-07-29T09:18:36;7.60;;;2.60;;
66380;SDS011;53177;52.648;1.214;2023-07-29T09:21:01;6.70;;;1.97;;
66380;SDS011;53177;52.648;1.214;2023-07-29T09:23:27;8.57;;;2.97;;
66380;SDS011;53177;52.648;1.214;2023-07-29T09:26:00;6.13;;;2.00;;
66380;SDS011;53177;52.648;1.214;2023-07-29T09:28:32;8.82;;;2.63;;
66380;SDS011;53177;52.648;1.214;2023-07-29T09:30:59;9.75;;;2.88;;
66380;SDS011;53177;52.648;1.214;2023-07-29T09:33:27;6.23;;;2.10;;
66380;SDS011;53177;52.648;1.214;2023-07-29T09:35:53;8.75;;;2.40;;
66380;SDS011;53177;52.648;1.214;2023-07-29T09:38:25;6.37;;;2.00;;
66380;SDS011;53177;52.648;1.214;2023-07-29T09:40:52;7.07;;;2.00;;
66380;SDS011;53177;52.648;1.214;2023-07-29T09:43:20;6.25;;;1.90;;
66380;SDS011;53177;52.648;1.214;2023-07-29T09:45:51;7.72;;;2.30;;
66380;SDS011;53177;52.648;1.214;2023-07-29T09:48:19;6.33;;;1.97;;
66380;SDS011;53177;52.648;1.214;2023-07-29T09:50:47;7.20;;;2.13;;
66380;SDS011;53177;52.648;1.214;2023-07-29T09:53:13;5.87;;;1.73;;
66380;SDS011;53177;52.648;1.214;2023-07-29T09:55:39;4.40;;;1.63;;
66380;SDS011;53177;52.648;1.214;2023-07-29T09:58:04;7.70;;;2.70;;
66380;SDS011;53177;52.648;1.214;2023-07-29T10:00:33;5.28;;;1.60;;
66380;SDS011;53177;52.648;1.214;2023-07-29T10:02:58;7.27;;;2.00;;
66380;SDS011;53177;52.648;1.214;2023-07-29T10:05:27;6.38;;;1.83;;
66380;SDS011;53177;52.648;1.214;2023-07-29T10:07:54;8.13;;;2.78;;
66380;SDS011;53177;52.648;1.214;2023-07-29T10:10:20;9.93;;;3.50;;
66380;SDS011;53177;52.648;1.214;2023-07-29T10:12:47;8.18;;;1.88;;
66380;SDS011;53177;52.648;1.214;2023-07-29T10:15:12;8.73;;;2.63;;
66380;SDS011;53177;52.648;1.214;2023-07-29T10:17:39;8.20;;;2.22;;
66380;SDS011;53177;52.648;1.214;2023-07-29T10:20:05;5.87;;;1.80;;
66380;SDS011;53177;52.648;1.214;2023-07-29T10:22:39;7.55;;;2.13;;
66380;SDS011;53177;52.648;1.214;2023-07-29T10:25:12;9.25;;;2.70;;
66380;SDS011;53177;52.648;1.214;2023-07-29T10:28:27;8.17;;;2.30;;
66380;SDS011;53177;52.648;1.214;2023-07-29T10:30:31;8.48;;;2.78;;
66380;SDS011;53177;52.648;1.214;2023-07-29T10:32:58;7.93;;;2.63;;
66380;SDS011;53177;52.648;1.214;2023-07-29T10:35:23;6.18;;;2.00;;
66380;SDS011;53177;52.648;1.214;2023-07-29T10:37:50;10.15;;;3.03;;
66380;SDS011;53177;52.648;1.214;2023-07-29T10:40:19;8.77;;;2.30;;
66380;SDS011;53177;52.648;1.214;2023-07-29T10:45:26;7.70;;;1.83;;
66380;SDS011;53177;52.648;1.214;2023-07-29T10:48:00;5.55;;;1.52;;
66380;SDS011;53177;52.648;1.214;2023-07-29T10:50:35;5.50;;;2.17;;
66380;SDS011;53177;52.648;1.214;2023-07-29T10:53:00;5.40;;;1.93;;
66380;SDS011;53177;52.648;1.214;2023-07-29T10:55:27;9.80;;;3.10;;
66380;SDS011;53177;52.648;1.214;2023-07-29T10:58:12;12.10;;;3.78;;
66380;SDS011;53177;52.648;1.214;2023-07-29T11:00:41;9.68;;;2.75;;
66380;SDS011;53177;52.648;1.214;2023-07-29T11:03:08;5.72;;;2.00;;
66380;SDS011;53177;52.648;1.214;2023-07-29T11:05:43;6.73;;;1.90;;
66380;SDS011;53177;52.648;1.214;2023-07-29T11:08:17;9.35;;;3.20;;
66380;SDS011;53177;52.648;1.214;2023-07-29T11:10:43;5.25;;;1.83;;
66380;SDS011;53177;52.648;1.214;2023-07-29T11:13:11;4.93;;;1.80;;
66380;SDS011;53177;52.648;1.214;2023-07-29T11:15:37;9.45;;;2.50;;
66380;SDS011;53177;52.648;1.214;2023-07-29T11:18:04;14.35;;;3.80;;
66380;SDS011;53177;52.648;1.214;2023-07-29T11:20:32;8.07;;;2.72;;
66380;SDS011;53177;52.648;1.214;2023-07-29T11:22:59;5.87;;;1.57;;
66380;SDS011;53177;52.648;1.214;2023-07-29T11:25:26;8.93;;;2.42;;
66380;SDS011;53177;52.648;1.214;2023-07-29T11:27:54;7.10;;;1.90;;
66380;SDS011;53177;52.648;1.214;2023-07-29T11:30:21;7.18;;;2.30;;
66380;SDS011;53177;52.648;1.214;2023-07-29T11:32:54;9.48;;;2.90;;
66380;SDS011;53177;52.648;1.214;2023-07-29T11:35:20;5.20;;;1.70;;
66380;SDS011;53177;52.648;1.214;2023-07-29T11:37:47;4.85;;;1.80;;
66380;SDS011;53177;52.648;1.214;2023-07-29T11:40:17;4.18;;;1.42;;
66380;SDS011;53177;52.648;1.214;2023-07-29T11:42:46;5.25;;;1.90;;
66380;SDS011;53177;52.648;1.214;2023-07-29T11:45:13;4.87;;;1.60;;
66380;SDS011;53177;52.648;1.214;2023-07-29T11:47:39;7.00;;;2.17;;
66380;SDS011;53177;52.648;1.214;2023-07-29T11:50:05;6.67;;;2.03;;
66380;SDS011;53177;52.648;1.214;2023-07-29T11:52:34;4.53;;;1.50;;
66380;SDS011;53177;52.648;1.214;2023-07-29T11:55:04;4.15;;;1.58;;
66380;SDS011;53177;52.648;1.214;2023-07-29T11:57:31;5.30;;;2.00;;
66380;SDS011;53177;52.648;1.214;2023-07-29T12:00:04;8.05;;;2.63;;
66380;SDS011;53177;52.648;1.214;2023-07-29T12:02:31;8.05;;;2.50;;
66380;SDS011;53177;52.648;1.214;2023-07-29T12:04:57;5.50;;;2.00;;
66380;SDS011;53177;52.648;1.214;2023-07-29T12:07:23;8.65;;;1.70;;
66380;SDS011;53177;52.648;1.214;2023-07-29T12:09:49;4.90;;;1.87;;
66380;SDS011;53177;52.648;1.214;2023-07-29T12:12:15;4.93;;;1.45;;
66380;SDS011;53177;52.648;1.214;2023-07-29T12:14:45;9.57;;;2.70;;
66380;SDS011;53177;52.648;1.214;2023-07-29T12:17:13;5.53;;;1.58;;
66380;SDS011;53177;52.648;1.214;2023-07-29T12:19:39;6.50;;;1.50;;
66380;SDS011;53177;52.648;1.214;2023-07-29T12:22:06;6.03;;;1.50;;
66380;SDS011;53177;52.648;1.214;2023-07-29T12:24:34;5.38;;;1.55;;
66380;SDS011;53177;52.648;1.214;2023-07-29T12:27:01;5.00;;;1.73;;
66380;SDS011;53177;52.648;1.214;2023-07-29T12:29:26;9.17;;;2.70;;
66380;SDS011;53177;52.648;1.214;2023-07-29T12:31:59;5.73;;;2.03;;
66380;SDS011;53177;52.648;1.214;2023-07-29T12:34:26;6.97;;;1.77;;
66380;SDS011;53177;52.648;1.214;2023-07-29T12:36:53;5.95;;;1.65;;
66380;SDS011;53177;52.648;1.214;2023-07-29T12:39:22;8.57;;;2.90;;
66380;SDS011;53177;52.648;1.214;2023-07-29T12:41:49;9.63;;;3.22;;
66380;SDS011;53177;52.648;1.214;2023-07-29T12:44:15;4.50;;;1.60;;
66380;SDS011;53177;52.648;1.214;2023-07-29T12:46:40;6.00;;;1.70;;
66380;SDS011;53177;52.648;1.214;2023-07-29T12:49:06;4.20;;;1.17;;
66380;SDS011;53177;52.648;1.214;2023-07-29T12:51:31;8.17;;;2.63;;
66380;SDS011;53177;52.648;1.214;2023-07-29T12:53:57;4.83;;;1.57;;
66380;SDS011;53177;52.648;1.214;2023-07-29T12:56:23;5.47;;;1.70;;
66380;SDS011;53177;52.648;1.214;2023-07-29T12:58:48;8.15;;;1.65;;
66380;SDS011;53177;52.648;1.214;2023-07-29T13:01:14;3.90;;;1.20;;
66380;SDS011;53177;52.648;1.214;2023-07-29T13:03:43;4.77;;;1.40;;
66380;SDS011;53177;52.648;1.214;2023-07-29T13:06:12;4.28;;;1.48;;
66380;SDS011;53177;52.648;1.214;2023-07-29T13:08:37;7.87;;;1.50;;
66380;SDS011;53177;52.648;1.214;2023-07-29T13:11:03;8.82;;;2.83;;
66380;SDS011;53177;52.648;1.214;2023-07-29T13:13:29;11.27;;;3.60;;
66380;SDS011;53177;52.648;1.214;2023-07-29T13:15:55;5.07;;;1.40;;
66380;SDS011;53177;52.648;1.214;2023-07-29T13:18:21;9.27;;;3.07;;
66380;SDS011;53177;52.648;1.214;2023-07-29T13:20:46;6.18;;;1.38;;
66380;SDS011;53177;52.648;1.214;2023-07-29T13:23:12;5.90;;;1.37;;
66380;SDS011;53177;52.648;1.214;2023-07-29T13:25:37;7.13;;;1.70;;
66380;SDS011;53177;52.648;1.214;2023-07-29T13:28:03;4.17;;;1.20;;
66380;SDS011;53177;52.648;1.214;2023-07-29T13:30:28;5.47;;;1.20;;
66380;SDS011;53177;52.648;1.214;2023-07-29T13:32:54;4.90;;;1.13;;
66380;SDS011;53177;52.648;1.214;2023-07-29T13:35:19;3.58;;;1.08;;
66380;SDS011;53177;52.648;1.214;2023-07-29T13:37:45;3.73;;;0.93;;
66380;SDS011;53177;52.648;1.214;2023-07-29T13:40:11;2.97;;;0.90;;
66380;SDS011;53177;52.648;1.214;2023-07-29T13:42:36;5.68;;;0.90;;
66380;SDS011;53177;52.648;1.214;2023-07-29T13:45:02;3.93;;;0.80;;
66380;SDS011;53177;52.648;1.214;2023-07-29T13:47:28;3.70;;;0.90;;
66380;SDS011;53177;52.648;1.214;2023-07-29T13:49:54;3.30;;;0.80;;
66380;SDS011;53177;52.648;1.214;2023-07-29T13:52:19;4.03;;;0.83;;
66380;SDS011;53177;52.648;1.214;2023-07-29T13:54:45;4.93;;;1.00;;
66380;SDS011;53177;52.648;1.214;2023-07-29T13:57:10;3.60;;;0.97;;
66380;SDS011;53177;52.648;1.214;2023-07-29T13:59:36;3.83;;;0.90;;
66380;SDS011;53177;52.648;1.214;2023-07-29T14:02:04;4.53;;;1.00;;
66380;SDS011;53177;52.648;1.214;2023-07-29T14:04:30;4.40;;;1.00;;
66380;SDS011;53177;52.648;1.214;2023-07-29T14:06:55;5.15;;;1.00;;
66380;SDS011;53177;52.648;1.214;2023-07-29T14:09:21;3.67;;;0.90;;
66380;SDS011;53177;52.648;1.214;2023-07-29T14:11:46;5.90;;;1.00;;
66380;SDS011;53177;52.648;1.214;2023-07-29T14:14:11;4.47;;;0.90;;
66380;SDS011;53177;52.648;1.214;2023-07-29T14:16:37;4.50;;;0.90;;
66380;SDS011;53177;52.648;1.214;2023-07-29T14:19:02;5.60;;;1.00;;
66380;SDS011;53177;52.648;1.214;2023-07-29T14:21:28;3.58;;;0.98;;
66380;SDS011;53177;52.648;1.214;2023-07-29T14:23:53;12.23;;;3.53;;
66380;SDS011;53177;52.648;1.214;2023-07-29T14:26:18;5.70;;;1.57;;
66380;SDS011;53177;52.648;1.214;2023-07-29T14:28:44;4.17;;;1.03;;
66380;SDS011;53177;52.648;1.214;2023-07-29T14:31:09;4.57;;;0.90;;
66380;SDS011;53177;52.648;1.214;2023-07-29T14:33:35;5.03;;;1.05;;
66380;SDS011;53177;52.648;1.214;2023-07-29T14:36:00;3.93;;;0.90;;
66380;SDS011;53177;52.648;1.214;2023-07-29T14:38:28;4.05;;;1.05;;
66380;SDS011;53177;52.648;1.214;2023-07-29T14:40:53;7.50;;;1.53;;
66380;SDS011;53177;52.648;1.214;2023-07-29T14:43:21;4.28;;;1.08;;
66380;SDS011;53177;52.648;1.214;2023-07-29T14:45:47;4.63;;;0.90;;
66380;SDS011;53177;52.648;1.214;2023-07-29T14:48:13;6.30;;;0.97;;
66380;SDS011;53177;52.648;1.214;2023-07-29T14:50:38;5.13;;;1.10;;
66380;SDS011;53177;52.648;1.214;2023-07-29T14:53:03;6.70;;;1.30;;
66380;SDS011;53177;52.648;1.214;2023-07-29T14:55:29;5.30;;;1.20;;